createdAt,value
2023-04-15T00:01:10.184Z,100848.56
2023-04-15T00:03:37.440Z,100857.06
2023-04-15T00:06:04.692Z,100860.31
2023-04-15T00:08:31.644Z,100854.13
2023-04-15T00:11:02.869Z,100860.00
2023-04-15T00:13:30.154Z,100867.44
2023-04-15T00:15:57.028Z,100869.78
2023-04-15T00:18:24.899Z,100874.69
2023-04-15T00:20:52.705Z,100878.91
2023-04-15T00:23:19.714Z,100876.38
2023-04-15T00:25:47.039Z,100889.88
2023-04-15T00:28:14.216Z,100881.34
2023-04-15T00:30:41.860Z,100894.00
2023-04-15T00:33:09.168Z,100888.78
2023-04-15T00:35:37.497Z,100897.19
2023-04-15T00:38:05.518Z,100897.69
2023-04-15T00:40:32.435Z,100903.25
2023-04-15T00:42:59.526Z,100901.41
2023-04-15T00:45:27.583Z,100902.97
2023-04-15T00:47:58.584Z,100906.31
2023-04-15T00:50:25.574Z,100910.03
2023-04-15T00:52:52.712Z,100906.59
2023-04-15T00:55:19.692Z,100917.19
2023-04-15T00:57:46.844Z,100923.44
2023-04-15T01:00:13.962Z,100921.78
2023-04-15T01:02:41.527Z,100926.19
2023-04-15T01:05:09.486Z,100925.41
2023-04-15T01:07:36.821Z,100932.97
2023-04-15T01:10:04.718Z,100938.25
2023-04-15T01:12:32.624Z,100938.63
2023-04-15T01:14:59.724Z,100945.69
2023-04-15T01:17:26.710Z,100945.91
2023-04-15T01:19:53.608Z,100945.91
2023-04-15T01:22:21.176Z,100945.19
2023-04-15T01:24:56.171Z,100951.19
2023-04-15T01:27:23.152Z,100943.94
2023-04-15T01:29:50.086Z,100949.09
2023-04-15T01:32:17.260Z,100949.88
2023-04-15T01:35:03.019Z,100956.84
2023-04-15T01:37:48.450Z,100954.28
2023-04-15T01:40:17.559Z,100952.75
2023-04-15T01:42:45.772Z,100957.56
2023-04-15T01:45:14.171Z,100958.50
2023-04-15T01:47:42.556Z,100956.91
2023-04-15T01:50:11.521Z,100974.22
2023-04-15T01:52:39.668Z,100965.94
2023-04-15T01:55:08.666Z,100966.59
2023-04-15T01:57:37.166Z,100977.75
2023-04-15T02:00:07.729Z,100976.91
2023-04-15T02:02:44.931Z,100981.00
2023-04-15T02:05:13.256Z,100983.38
2023-04-15T02:07:42.600Z,100986.97
2023-04-15T02:10:11.748Z,100985.50
2023-04-15T02:12:40.690Z,100990.50
2023-04-15T02:15:10.184Z,100996.47
2023-04-15T02:17:38.443Z,100994.69
2023-04-15T02:20:08.784Z,101005.28
2023-04-15T02:22:37.280Z,100999.63
2023-04-15T02:25:06.262Z,101004.50
2023-04-15T02:27:34.392Z,101004.66
2023-04-15T02:30:03.290Z,101012.66
2023-04-15T02:32:31.667Z,101008.25
2023-04-15T02:35:04.307Z,101021.06
2023-04-15T02:37:33.014Z,101016.41
2023-04-15T02:40:01.598Z,101014.19
2023-04-15T02:42:30.454Z,101028.25
2023-04-15T02:45:01.750Z,101023.59
2023-04-15T02:47:34.911Z,101027.13
2023-04-15T02:50:09.588Z,101030.44
2023-04-15T02:52:38.860Z,101037.78
2023-04-15T02:55:08.288Z,101040.34
2023-04-15T02:57:38.956Z,101047.19
2023-04-15T03:00:11.625Z,101049.25
2023-04-15T03:02:43.142Z,101054.34
2023-04-15T03:05:12.791Z,101055.25
2023-04-15T03:07:44.124Z,101058.78
2023-04-15T03:10:12.997Z,101068.25
2023-04-15T03:12:41.686Z,101062.19
2023-04-15T03:15:13.242Z,101071.06
2023-04-15T03:17:46.362Z,101076.78
2023-04-15T03:20:14.681Z,101076.63
2023-04-15T03:22:42.926Z,101082.38
2023-04-15T03:25:11.482Z,101087.59
2023-04-15T03:27:39.680Z,101086.81
2023-04-15T03:30:09.056Z,101086.59
2023-04-15T03:32:39.704Z,101081.09
2023-04-15T03:35:09.710Z,101089.50
2023-04-15T03:37:37.954Z,101098.56
2023-04-15T03:40:06.829Z,101097.97
2023-04-15T03:42:34.915Z,101095.53
2023-04-15T03:45:03.634Z,101100.38
2023-04-15T03:47:32.133Z,101106.75
2023-04-15T03:50:00.497Z,101108.72
2023-04-15T03:52:28.725Z,101111.69
2023-04-15T03:54:57.062Z,101112.47
2023-04-15T03:57:25.630Z,101117.38
2023-04-15T03:59:53.931Z,101112.78
2023-04-15T04:02:23.256Z,101114.69
2023-04-15T04:04:51.940Z,101116.84
2023-04-15T04:07:20.398Z,101124.78
2023-04-15T04:09:48.501Z,101123.16
2023-04-15T04:12:16.652Z,101126.38
2023-04-15T04:14:44.929Z,101130.53
2023-04-15T04:17:13.286Z,101131.41
2023-04-15T04:19:41.614Z,101128.97
2023-04-15T04:22:09.839Z,101129.44
2023-04-15T04:24:38.063Z,101134.13
2023-04-15T04:27:06.314Z,101126.19
2023-04-15T04:29:34.537Z,101133.53
2023-04-15T04:32:02.741Z,101123.84
2023-04-15T04:34:31.260Z,101129.41
2023-04-15T04:36:59.547Z,101132.13
2023-04-15T04:39:27.805Z,101129.28
2023-04-15T04:41:56.140Z,101134.66
2023-04-15T04:44:24.344Z,101125.81
2023-04-15T04:46:52.620Z,101129.09
2023-04-15T04:49:20.934Z,101129.56
2023-04-15T04:51:49.129Z,101129.84
2023-04-15T04:54:17.672Z,101130.22
2023-04-15T04:56:45.859Z,101133.41
2023-04-15T04:59:14.171Z,101132.72
2023-04-15T05:01:42.851Z,101131.22
2023-04-15T05:04:11.580Z,101137.47
2023-04-15T05:06:39.921Z,101136.50
2023-04-15T05:09:08.118Z,101147.88
2023-04-15T05:11:36.602Z,101141.19
2023-04-15T05:14:04.734Z,101137.84
2023-04-15T05:16:32.988Z,101136.16
2023-04-15T05:19:01.315Z,101140.28
2023-04-15T05:21:29.723Z,101146.03
2023-04-15T05:23:57.802Z,101144.72
2023-04-15T05:26:27.606Z,101141.00
2023-04-15T05:28:55.796Z,101143.31
2023-04-15T05:31:24.067Z,101140.41
2023-04-15T05:33:52.233Z,101145.44
2023-04-15T05:36:20.326Z,101151.78
2023-04-15T05:38:48.481Z,101157.34
2023-04-15T05:41:19.601Z,101150.81
2023-04-15T05:43:48.142Z,101158.63
2023-04-15T05:46:16.660Z,101153.06
2023-04-15T05:48:45.001Z,101153.41
2023-04-15T05:51:13.162Z,101156.66
2023-04-15T05:53:41.783Z,101157.97
2023-04-15T05:56:09.916Z,101159.25
2023-04-15T05:58:38.144Z,101157.47
2023-04-15T06:01:06.511Z,101159.00
2023-04-15T06:03:34.770Z,101157.56
2023-04-15T06:06:03.692Z,101166.56
2023-04-15T06:08:31.882Z,101162.63
2023-04-15T06:11:00.540Z,101164.16
2023-04-15T06:13:28.781Z,101168.53
2023-04-15T06:15:56.889Z,101168.81
2023-04-15T06:18:25.000Z,101165.94
2023-04-15T06:20:53.220Z,101172.81
2023-04-15T06:23:21.561Z,101168.28
2023-04-15T06:25:49.659Z,101173.25
2023-04-15T06:28:17.900Z,101177.09
2023-04-15T06:30:46.154Z,101173.78
2023-04-15T06:33:14.385Z,101174.38
2023-04-15T06:35:42.529Z,101173.94
2023-04-15T06:38:10.680Z,101179.06
2023-04-15T06:40:38.885Z,101179.22
2023-04-15T06:43:08.109Z,101177.75
2023-04-15T06:45:36.346Z,101179.81
2023-04-15T06:48:04.840Z,101187.72
2023-04-15T06:50:33.163Z,101189.63
2023-04-15T06:53:01.298Z,101182.91
2023-04-15T06:55:29.596Z,101173.38
2023-04-15T06:57:57.815Z,101176.00
2023-04-15T07:00:26.295Z,101185.56
2023-04-15T07:02:55.440Z,101176.16
2023-04-15T07:05:23.684Z,101189.34
2023-04-15T07:07:51.898Z,101186.63
2023-04-15T07:10:20.506Z,101179.47
2023-04-15T07:12:48.963Z,101178.84
2023-04-15T07:15:17.272Z,101183.44
2023-04-15T07:17:45.666Z,101182.47
2023-04-15T07:20:14.001Z,101182.09
2023-04-15T07:22:42.307Z,101177.41
2023-04-15T07:25:10.454Z,101181.72
2023-04-15T07:27:38.621Z,101184.59
2023-04-15T07:30:07.536Z,101184.03
2023-04-15T07:32:36.095Z,101187.84
2023-04-15T07:35:04.637Z,101188.41
2023-04-15T07:37:31.626Z,101179.88
2023-04-15T07:39:59.891Z,101174.00
2023-04-15T07:42:29.356Z,101180.16
2023-04-15T07:44:57.758Z,101185.44
2023-04-15T07:47:25.880Z,101175.44
2023-04-15T07:49:54.042Z,101175.69
2023-04-15T07:52:22.318Z,101181.88
2023-04-15T07:54:50.526Z,101177.69
2023-04-15T07:57:18.889Z,101179.84
2023-04-15T07:59:47.318Z,101170.75
2023-04-15T08:02:15.698Z,101173.84
2023-04-15T08:04:44.418Z,101173.69
2023-04-15T08:07:12.701Z,101173.91
2023-04-15T08:09:40.894Z,101178.75
2023-04-15T08:12:12.466Z,101181.50
2023-04-15T08:14:40.766Z,101175.16
2023-04-15T08:17:10.443Z,101168.78
2023-04-15T08:19:38.711Z,101174.16
2023-04-15T08:22:06.865Z,101172.72
2023-04-15T08:24:44.349Z,101175.59
2023-04-15T08:27:12.872Z,101177.59
2023-04-15T08:29:40.944Z,101175.13
2023-04-15T08:32:09.622Z,101171.63
2023-04-15T08:34:38.097Z,101177.72
2023-04-15T08:37:07.065Z,101167.28
2023-04-15T08:39:35.287Z,101174.31
2023-04-15T08:42:05.712Z,101173.63
2023-04-15T08:44:34.848Z,101171.25
2023-04-15T08:47:03.377Z,101170.53
2023-04-15T08:49:32.599Z,101157.97
2023-04-15T08:52:02.834Z,101163.66
2023-04-15T08:54:31.140Z,101170.81
2023-04-15T08:56:59.622Z,101169.41
2023-04-15T08:59:27.939Z,101162.94
2023-04-15T09:01:56.747Z,101168.69
2023-04-15T09:04:24.864Z,101153.38
2023-04-15T09:06:53.215Z,101153.78
2023-04-15T09:09:21.898Z,101156.78
2023-04-15T09:11:51.537Z,101156.19
2023-04-15T09:14:19.683Z,101151.91
2023-04-15T09:17:04.380Z,101157.53
2023-04-15T09:19:34.404Z,101153.59
2023-04-15T09:22:02.731Z,101154.13
2023-04-15T09:24:37.576Z,101145.00
2023-04-15T09:27:06.214Z,101153.03
2023-04-15T09:29:34.575Z,101154.88
2023-04-15T09:32:13.228Z,101152.59
2023-04-15T09:34:41.474Z,101147.50
2023-04-15T09:37:11.046Z,101154.88
2023-04-15T09:39:50.100Z,101151.66
2023-04-15T09:42:24.534Z,101143.97
2023-04-15T09:44:56.044Z,101139.44
2023-04-15T09:47:31.671Z,101142.44
2023-04-15T09:50:01.019Z,101138.38
2023-04-15T09:52:29.478Z,101140.19
2023-04-15T09:54:58.907Z,101140.63
2023-04-15T09:57:36.007Z,101140.81
2023-04-15T10:00:05.497Z,101133.31
2023-04-15T10:02:38.179Z,101132.69
2023-04-15T10:05:07.357Z,101143.03
2023-04-15T10:07:35.990Z,101128.34
2023-04-15T10:10:05.450Z,101132.91
2023-04-15T10:12:33.809Z,101130.66
2023-04-15T10:15:05.188Z,101132.53
2023-04-15T10:17:35.426Z,101135.28
2023-04-15T10:20:05.215Z,101138.13
2023-04-15T10:22:33.619Z,101129.81
2023-04-15T10:25:02.505Z,101127.34
2023-04-15T10:27:30.703Z,101132.06
2023-04-15T10:29:58.805Z,101130.28
2023-04-15T10:32:27.199Z,101131.97
2023-04-15T10:34:55.425Z,101131.22
2023-04-15T10:37:36.063Z,101131.41
2023-04-15T10:40:24.727Z,101131.50
2023-04-15T10:42:54.067Z,101132.25
2023-04-15T10:45:22.327Z,101130.38
2023-04-15T10:47:57.565Z,101129.53
2023-04-15T10:50:26.748Z,101126.78
2023-04-15T10:52:54.950Z,101129.53
2023-04-15T10:55:26.973Z,101133.09
2023-04-15T10:57:56.346Z,101129.31
2023-04-15T11:00:31.848Z,101124.19
2023-04-15T11:03:00.829Z,101123.28
2023-04-15T11:05:41.570Z,101127.03
2023-04-15T11:08:10.419Z,101128.75
2023-04-15T11:10:38.378Z,101122.66
2023-04-15T11:13:18.379Z,101126.63
2023-04-15T11:15:47.296Z,101122.28
2023-04-15T11:18:20.334Z,101127.84
2023-04-15T11:20:52.722Z,101118.59
2023-04-15T11:23:31.651Z,101121.13
2023-04-15T11:26:01.119Z,101126.13
2023-04-15T11:28:30.952Z,101113.22
2023-04-15T11:31:00.879Z,101118.03
2023-04-15T11:33:29.177Z,101116.91
2023-04-15T11:35:57.489Z,101113.50
2023-04-15T11:38:25.715Z,101117.94
2023-04-15T11:40:53.915Z,101114.53
2023-04-15T11:43:22.951Z,101112.78
2023-04-15T11:45:58.965Z,101105.91
2023-04-15T11:48:27.990Z,101105.22
2023-04-15T11:50:57.531Z,101099.13
2023-04-15T11:53:26.105Z,101099.91
2023-04-15T11:55:53.988Z,101100.91
2023-04-15T11:58:23.407Z,101104.28
2023-04-15T12:00:52.605Z,101100.75
2023-04-15T12:03:30.554Z,101090.34
2023-04-15T12:06:08.765Z,101094.78
2023-04-15T12:09:06.607Z,101100.66
2023-04-15T12:11:40.647Z,101088.66
2023-04-15T12:14:12.821Z,101097.53
2023-04-15T12:16:50.047Z,101091.63
2023-04-15T12:19:24.290Z,101085.88
2023-04-15T12:21:51.908Z,101085.16
2023-04-15T12:24:21.298Z,101085.16
2023-04-15T12:26:49.689Z,101083.28
2023-04-15T12:29:17.508Z,101079.78
2023-04-15T12:31:52.643Z,101089.50
2023-04-15T12:34:29.782Z,101084.19
2023-04-15T12:36:58.191Z,101076.41
2023-04-15T12:39:25.614Z,101072.97
2023-04-15T12:41:53.067Z,101083.41
2023-04-15T12:44:20.241Z,101079.06
2023-04-15T12:46:47.552Z,101079.13
2023-04-15T12:49:16.005Z,101073.66
2023-04-15T12:51:42.999Z,101068.31
2023-04-15T12:54:09.957Z,101069.75
2023-04-15T12:56:39.967Z,101079.16
2023-04-15T12:59:07.392Z,101074.25
2023-04-15T13:01:34.682Z,101075.09
2023-04-15T13:04:02.007Z,101072.34
2023-04-15T13:06:29.542Z,101064.59
2023-04-15T13:08:58.785Z,101065.34
2023-04-15T13:11:26.269Z,101061.78
2023-04-15T13:13:53.391Z,101067.72
2023-04-15T13:16:20.895Z,101074.47
2023-04-15T13:18:48.917Z,101070.88
2023-04-15T13:21:16.245Z,101063.78
2023-04-15T13:23:43.317Z,101069.78
2023-04-15T13:26:10.276Z,101059.56
2023-04-15T13:28:37.299Z,101066.44
2023-04-15T13:31:05.829Z,101069.72
2023-04-15T13:33:32.869Z,101067.03
2023-04-15T13:35:59.809Z,101062.56
2023-04-15T13:38:26.993Z,101060.66
2023-04-15T13:40:54.123Z,101074.66
2023-04-15T13:43:21.687Z,101062.53
2023-04-15T13:45:48.834Z,101073.50
2023-04-15T13:48:16.284Z,101066.47
2023-04-15T13:50:45.476Z,101062.97
2023-04-15T13:53:13.097Z,101063.00
2023-04-15T13:55:43.292Z,101062.19
2023-04-15T13:58:10.314Z,101065.53
2023-04-15T14:00:37.444Z,101068.03
2023-04-15T14:03:04.645Z,101066.28
2023-04-15T14:05:32.360Z,101060.06
2023-04-15T14:08:00.020Z,101062.59
2023-04-15T14:10:27.046Z,101067.53
2023-04-15T14:12:54.212Z,101064.03
2023-04-15T14:15:21.490Z,101064.91
2023-04-15T14:17:48.523Z,101067.50
2023-04-15T14:20:17.205Z,101067.44
2023-04-15T14:22:44.587Z,101064.03
2023-04-15T14:25:17.198Z,101062.31
2023-04-15T14:27:50.509Z,101068.34
2023-04-15T14:30:17.611Z,101067.44
2023-04-15T14:32:44.834Z,101064.78
2023-04-15T14:35:11.743Z,101066.41
2023-04-15T14:37:38.703Z,101057.69
2023-04-15T14:40:06.531Z,101059.31
2023-04-15T14:42:33.403Z,101064.38
2023-04-15T14:45:00.398Z,101061.63
2023-04-15T14:47:27.810Z,101065.78
2023-04-15T14:49:54.771Z,101060.44
2023-04-15T14:52:21.789Z,101060.38
2023-04-15T14:54:48.889Z,101053.41
2023-04-15T14:57:16.315Z,101047.25
2023-04-15T14:59:43.335Z,101049.75
2023-04-15T15:02:11.497Z,101054.88
2023-04-15T15:04:40.758Z,101048.78
2023-04-15T15:07:07.784Z,101048.69
2023-04-15T15:09:35.108Z,101057.25
2023-04-15T15:12:02.194Z,101057.25
2023-04-15T15:14:29.358Z,101049.25
2023-04-15T15:16:56.352Z,101052.56
2023-04-15T15:19:24.929Z,101054.16
2023-04-15T15:21:51.925Z,101056.56
2023-04-15T15:24:18.855Z,101052.94
2023-04-15T15:26:45.820Z,101049.41
2023-04-15T15:29:12.770Z,101050.97
2023-04-15T15:31:39.885Z,101057.75
2023-04-15T15:34:07.182Z,101064.47
2023-04-15T15:36:34.201Z,101062.59
2023-04-15T15:39:01.379Z,101059.78
2023-04-15T15:41:28.450Z,101063.75
2023-04-15T15:43:55.666Z,101061.81
2023-04-15T15:46:24.374Z,101063.31
2023-04-15T15:48:51.411Z,101064.94
2023-04-15T15:51:18.373Z,101059.59
2023-04-15T15:53:45.631Z,101061.97
2023-04-15T15:56:12.633Z,101064.25
2023-04-15T15:58:39.684Z,101064.81
2023-04-15T16:01:06.654Z,101061.94
2023-04-15T16:03:33.868Z,101059.94
2023-04-15T16:06:01.020Z,101064.75
2023-04-15T16:08:28.024Z,101071.38
2023-04-15T16:10:55.028Z,101067.66
2023-04-15T16:13:22.439Z,101072.63
2023-04-15T16:15:52.087Z,101069.06
2023-04-15T16:18:19.113Z,101072.34
2023-04-15T16:20:46.262Z,101073.94
2023-04-15T16:23:16.981Z,101073.72
2023-04-15T16:25:44.407Z,101078.63
2023-04-15T16:28:25.216Z,101079.22
2023-04-15T16:30:53.703Z,101077.13
2023-04-15T16:33:20.828Z,101075.13
2023-04-15T16:35:47.816Z,101086.84
2023-04-15T16:38:14.843Z,101079.72
2023-04-15T16:40:42.221Z,101086.47
2023-04-15T16:43:11.347Z,101090.59
2023-04-15T16:45:38.597Z,101088.03
2023-04-15T16:48:06.017Z,101092.34
2023-04-15T16:50:32.930Z,101092.47
2023-04-15T16:53:00.006Z,101097.81
2023-04-15T16:55:27.273Z,101091.78
2023-04-15T16:58:02.135Z,101093.28
2023-04-15T17:00:36.115Z,101090.25
2023-04-15T17:03:03.463Z,101100.97
2023-04-15T17:05:33.383Z,101095.34
2023-04-15T17:08:00.407Z,101102.59
2023-04-15T17:10:27.795Z,101096.19
2023-04-15T17:12:56.687Z,101095.78
2023-04-15T17:15:24.262Z,101097.88
2023-04-15T17:18:08.111Z,101105.09
2023-04-15T17:20:38.782Z,101103.97
2023-04-15T17:23:07.094Z,101112.50
2023-04-15T17:25:35.865Z,101110.66
2023-04-15T17:28:06.633Z,101107.72
2023-04-15T17:30:36.443Z,101111.66
2023-04-15T17:33:57.516Z,101114.56
2023-04-15T17:36:31.001Z,101118.28
2023-04-15T17:39:17.964Z,101119.63
2023-04-15T17:41:44.948Z,101124.50
2023-04-15T17:44:31.771Z,101136.25
2023-04-15T17:47:18.529Z,101129.63
2023-04-15T17:50:11.544Z,101121.19
2023-04-15T17:52:58.533Z,101134.34
2023-04-15T17:55:46.397Z,101135.53
2023-04-15T17:58:33.316Z,101139.28
2023-04-15T18:01:22.407Z,101141.38
2023-04-15T18:04:09.677Z,101145.41
2023-04-15T18:06:56.868Z,101139.34
2023-04-15T18:09:44.456Z,101130.78
2023-04-15T18:12:31.324Z,101133.50
2023-04-15T18:15:18.919Z,101144.09
2023-04-15T18:18:06.037Z,101140.66
2023-04-15T18:20:33.598Z,101137.00
2023-04-15T18:23:01.594Z,101146.16
2023-04-15T18:25:30.087Z,101139.78
2023-04-15T18:27:57.382Z,101142.09
2023-04-15T18:30:24.457Z,101137.56
2023-04-15T18:32:51.713Z,101144.31
2023-04-15T18:35:19.282Z,101147.66
2023-04-15T18:37:46.575Z,101152.81
2023-04-15T18:40:15.901Z,101146.88
2023-04-15T18:42:43.085Z,101145.31
2023-04-15T18:45:10.547Z,101152.22
2023-04-15T18:47:37.627Z,101153.16
2023-04-15T18:50:05.163Z,101152.44
2023-04-15T18:52:33.906Z,101151.56
2023-04-15T18:55:03.315Z,101158.38
2023-04-15T18:57:33.156Z,101158.22
2023-04-15T19:00:02.186Z,101164.88
2023-04-15T19:02:33.525Z,101163.88
2023-04-15T19:05:04.151Z,101163.72
2023-04-15T19:07:32.347Z,101163.56
2023-04-15T19:09:59.418Z,101160.84
2023-04-15T19:12:26.487Z,101159.94
2023-04-15T19:14:53.560Z,101159.78
2023-04-15T19:17:20.641Z,101166.50
2023-04-15T19:19:47.535Z,101162.13
2023-04-15T19:22:14.569Z,101167.16
2023-04-15T19:24:41.496Z,101171.44
2023-04-15T19:27:08.429Z,101172.22
2023-04-15T19:29:35.425Z,101166.13
2023-04-15T19:32:02.492Z,101176.16
2023-04-15T19:34:29.440Z,101169.09
2023-04-15T19:36:56.635Z,101169.91
2023-04-15T19:39:23.847Z,101174.22
2023-04-15T19:41:51.800Z,101174.22
2023-04-15T19:44:20.130Z,101170.78
2023-04-15T19:46:50.065Z,101175.03
2023-04-15T19:49:17.841Z,101176.56
2023-04-15T19:51:44.794Z,101169.53
2023-04-15T19:54:11.851Z,101179.78
2023-04-15T19:56:38.808Z,101186.50
2023-04-15T19:59:06.075Z,101190.66
2023-04-15T20:01:33.228Z,101181.16
2023-04-15T20:04:00.277Z,101192.19
2023-04-15T20:06:27.902Z,101188.66
2023-04-15T20:08:54.920Z,101194.59
2023-04-15T20:11:22.241Z,101195.41
2023-04-15T20:13:49.332Z,101194.34
2023-04-15T20:16:16.809Z,101201.06
2023-04-15T20:18:43.911Z,101206.13
2023-04-15T20:21:10.966Z,101203.56
2023-04-15T20:23:38.371Z,101207.94
2023-04-15T20:26:05.431Z,101208.13
2023-04-15T20:28:32.627Z,101208.22
2023-04-15T20:31:02.546Z,101207.16
2023-04-15T20:33:29.868Z,101206.91
2023-04-15T20:35:56.959Z,101208.09
2023-04-15T20:38:23.912Z,101210.44
2023-04-15T20:40:51.384Z,101210.25
2023-04-15T20:43:18.430Z,101200.81
2023-04-15T20:45:45.640Z,101212.50
2023-04-15T20:48:12.749Z,101206.41
2023-04-15T20:50:39.787Z,101211.34
2023-04-15T20:53:06.763Z,101212.22
2023-04-15T20:55:33.983Z,101222.41
2023-04-15T20:58:01.191Z,101214.44
2023-04-15T21:00:28.281Z,101212.44
2023-04-15T21:02:55.937Z,101221.03
2023-04-15T21:05:23.021Z,101207.97
2023-04-15T21:07:50.068Z,101219.00
2023-04-15T21:10:16.951Z,101218.19
2023-04-15T21:12:44.057Z,101217.41
2023-04-15T21:15:11.278Z,101220.84
2023-04-15T21:17:38.774Z,101220.53
2023-04-15T21:20:06.542Z,101221.84
2023-04-15T21:22:33.486Z,101222.56
2023-04-15T21:25:00.942Z,101219.72
2023-04-15T21:27:27.921Z,101217.78
2023-04-15T21:29:55.075Z,101221.25
2023-04-15T21:32:22.019Z,101218.59
2023-04-15T21:34:49.014Z,101220.97
2023-04-15T21:37:16.019Z,101225.13
2023-04-15T21:39:43.109Z,101227.63
2023-04-15T21:42:10.086Z,101226.09
2023-04-15T21:44:37.120Z,101232.00
2023-04-15T21:47:04.232Z,101237.84
2023-04-15T21:49:31.528Z,101241.28
2023-04-15T21:52:01.363Z,101242.53
2023-04-15T21:54:28.543Z,101245.25
2023-04-15T21:56:57.002Z,101246.91
2023-04-15T21:59:24.082Z,101246.13
2023-04-15T22:01:51.267Z,101251.25
2023-04-15T22:04:18.370Z,101248.69
2023-04-15T22:06:45.592Z,101247.88
2023-04-15T22:09:14.424Z,101257.59
2023-04-15T22:11:41.709Z,101249.13
2023-04-15T22:14:09.172Z,101254.41
2023-04-15T22:16:36.303Z,101251.31
2023-04-15T22:19:03.360Z,101252.09
2023-04-15T22:21:30.497Z,101260.75
2023-04-15T22:24:38.228Z,101261.03
2023-04-15T22:26:44.613Z,101264.38
2023-04-15T22:29:11.808Z,101263.31
2023-04-15T22:31:38.984Z,101265.69
2023-04-15T22:34:05.999Z,101265.69
2023-04-15T22:36:33.093Z,101274.44
2023-04-15T22:39:00.178Z,101266.03
2023-04-15T22:41:27.430Z,101270.19
2023-04-15T22:43:54.389Z,101262.34
2023-04-15T22:46:21.480Z,101270.03
2023-04-15T22:48:48.649Z,101277.53
2023-04-15T22:51:21.387Z,101276.75
2023-04-15T22:53:48.601Z,101282.66
2023-04-15T22:56:15.625Z,101280.88
2023-04-15T22:58:42.671Z,101286.34
2023-04-15T23:01:09.689Z,101278.69
2023-04-15T23:03:55.793Z,101286.19
2023-04-15T23:06:23.750Z,101283.63
2023-04-15T23:08:51.282Z,101284.25
2023-04-15T23:11:18.562Z,101293.25
2023-04-15T23:13:45.652Z,101287.69
2023-04-15T23:16:12.946Z,101297.41
2023-04-15T23:18:39.857Z,101295.91
2023-04-15T23:21:06.823Z,101297.22
2023-04-15T23:23:33.847Z,101298.53
2023-04-15T23:26:01.446Z,101296.25
2023-04-15T23:28:28.497Z,101292.44
2023-04-15T23:30:56.962Z,101297.78
2023-04-15T23:33:25.035Z,101289.56
2023-04-15T23:35:52.155Z,101302.94
2023-04-15T23:38:19.275Z,101303.84
2023-04-15T23:40:46.311Z,101308.78
2023-04-15T23:43:13.448Z,101310.81
2023-04-15T23:45:40.532Z,101315.78
2023-04-15T23:48:07.436Z,101311.09
2023-04-15T23:50:34.451Z,101315.34
2023-04-15T23:53:02.036Z,101323.34
2023-04-15T23:55:29.558Z,101319.63
2023-04-15T23:57:56.651Z,101324.44
